LSZALSGS

Guest
Details From LSZA - Lugano
To LSGS - Sion
Flight Number -
Tags generated
Created
Modified
Stats Distance 68 nm / 125 km
Max Altitude 6,500 ft / 1,981 m
Waypoints 3
Social Downloads 4
Likes 0
Share VATSIM

Download

Looking for another format? Having issues loading an existing format? Contact us
Advertisement - Login to hide

Notes

Basic altitude profile: - Ascent Rate: 2500ft/min - Ascent Speed: 250kts - Cruise Altitude: 35000ft - Cruise Speed: 420kts - Descent Rate: 1500ft/min - Descent Speed: 250kts Options: - Use NATs: yes - Use PACOTS: yes - Use low airways: yes - Use high airways: yes

Route

LSZA PUNSA LSGS

ID Type Via Altitude Latitude Longitude Leg Dist Tot Dist Heading (true) Name
O LSZA APT - 0 ft / 0 m 46.00428˚ 8.91058˚ - 0 nm - Lugano
PUNSA FIX - 6,500 ft / 1,981 m 46.07861˚ 8.02583˚ 37 nm 37 nm 277° / 277° -
O LSGS APT - 0 ft / 0 m 46.21895˚ 7.32409˚ 30 nm 67 nm 286° / 286° Sion

Altitude Profile

Advertisement - Login to hide

LSZA

Details ICAO LSZA (LUG)
Name Lugano
Region Switzerland
Timezone Europe/Zurich (UTC+1.0)
Stats Elevation 915 ft / 279 m (AMSL)
Location 46.004275° 8.910579°
Runways 1
Magnetic Variation 2.423° E

METAR

LSZA 140220Z AUTO VRB01KT 9999 OVC050 01/M01 Q1010

Decode

TAF

Not found

Departure Runways

ID Width Length Bearing (true) Bearing (mag) Surface Threshold Offset Overrun Length
01 98 ft / 30 m 4,430 ft / 1,350 m 18.79° 16.37° Asphalt 361 ft / 110 m 0 ft / 0 m
19 98 ft / 30 m 4,430 ft / 1,350 m 198.79° 196.37° Asphalt 673 ft / 205 m 0 ft / 0 m

LSGS

Details ICAO LSGS (SIR)
Name Sion
Region Switzerland
Timezone Europe/Zurich (UTC+1.0)
Stats Elevation 1,585 ft / 483 m (AMSL)
Location 46.218954° 7.324090°
Runways 2
Magnetic Variation 2.042° E

METAR

LSGS 140220Z AUTO VRB02KT 8000 FEW090 M00/M01 Q1009 RESN

Decode

TAF

Not found

Destination Runways

ID Width Length Bearing (true) Bearing (mag) Surface Threshold Offset Overrun Length
07L 98 ft / 30 m 2,167 ft / 661 m 72.83° 70.79° Grass 0 ft / 0 m 0 ft / 0 m
07R 131 ft / 40 m 6,605 ft / 2,013 m 72.84° 70.80° Asphalt 164 ft / 50 m 627 ft / 191 m
25L 131 ft / 40 m 6,605 ft / 2,013 m 252.86° 250.82° Asphalt 164 ft / 50 m 627 ft / 191 m
25R 98 ft / 30 m 2,167 ft / 661 m 252.83° 250.79° Grass 328 ft / 100 m 0 ft / 0 m

Approach Navaids

Runway Type Ident Frequency Range Bearing (true) Bearing (mag) Slope Elevation
25L Localiser ISI 110.70 MHz 45 nm / 83 km 246.48° 244.44° - 1,609 ft / 490 m (AMSL)
25L Glidescope ISI 110.70 MHz 45 nm / 83 km 246.48° 244.44° 6.00° 1,595 ft / 486 m (AMSL)
25L DME ISI 108.35 MHz 45 nm / 83 km - - - 1,609 ft / 490 m (AMSL)

Popular Alternatives